sensor_id;sensor_type;location;lat;lon;timestamp;P1;durP1;ratioP1;P2;durP2;ratioP2
3369;SDS011;42042;51.948;7.628;2022-09-06T00:00:40;4.83;;;3.67;;
3369;SDS011;42042;51.948;7.628;2022-09-06T00:03:07;4.23;;;3.50;;
3369;SDS011;42042;51.948;7.628;2022-09-06T00:05:34;4.87;;;4.37;;
3369;SDS011;42042;51.948;7.628;2022-09-06T00:08:02;5.50;;;3.90;;
3369;SDS011;42042;51.948;7.628;2022-09-06T00:10:30;4.33;;;4.03;;
3369;SDS011;42042;51.948;7.628;2022-09-06T00:12:58;4.87;;;4.47;;
3369;SDS011;42042;51.948;7.628;2022-09-06T00:15:27;7.43;;;4.20;;
3369;SDS011;42042;51.948;7.628;2022-09-06T00:17:56;4.20;;;3.80;;
3369;SDS011;42042;51.948;7.628;2022-09-06T00:20:24;5.90;;;3.87;;
3369;SDS011;42042;51.948;7.628;2022-09-06T00:22:55;5.90;;;3.87;;
3369;SDS011;42042;51.948;7.628;2022-09-06T00:25:22;4.60;;;4.20;;
3369;SDS011;42042;51.948;7.628;2022-09-06T00:27:52;4.60;;;4.20;;
3369;SDS011;42042;51.948;7.628;2022-09-06T00:30:19;5.87;;;4.27;;
3369;SDS011;42042;51.948;7.628;2022-09-06T00:32:47;4.57;;;4.17;;
3369;SDS011;42042;51.948;7.628;2022-09-06T00:35:15;4.17;;;3.77;;
3369;SDS011;42042;51.948;7.628;2022-09-06T00:37:42;5.83;;;4.37;;
3369;SDS011;42042;51.948;7.628;2022-09-06T00:40:10;7.40;;;4.33;;
3369;SDS011;42042;51.948;7.628;2022-09-06T00:42:37;6.70;;;4.30;;
3369;SDS011;42042;51.948;7.628;2022-09-06T00:45:05;5.00;;;4.50;;
3369;SDS011;42042;51.948;7.628;2022-09-06T00:47:32;4.73;;;4.17;;
3369;SDS011;42042;51.948;7.628;2022-09-06T00:50:02;6.00;;;4.23;;
3369;SDS011;42042;51.948;7.628;2022-09-06T00:52:30;6.87;;;5.23;;
3369;SDS011;42042;51.948;7.628;2022-09-06T00:54:58;4.07;;;3.80;;
3369;SDS011;42042;51.948;7.628;2022-09-06T00:57:25;9.10;;;4.07;;
3369;SDS011;42042;51.948;7.628;2022-09-06T00:59:55;8.63;;;4.33;;
3369;SDS011;42042;51.948;7.628;2022-09-06T01:02:22;4.27;;;3.97;;
3369;SDS011;42042;51.948;7.628;2022-09-06T01:04:49;3.90;;;3.50;;
3369;SDS011;42042;51.948;7.628;2022-09-06T01:07:20;4.50;;;4.10;;
3369;SDS011;42042;51.948;7.628;2022-09-06T01:09:53;8.90;;;3.90;;
3369;SDS011;42042;51.948;7.628;2022-09-06T01:12:25;10.57;;;4.57;;
3369;SDS011;42042;51.948;7.628;2022-09-06T01:14:59;4.67;;;4.27;;
3369;SDS011;42042;51.948;7.628;2022-09-06T01:17:33;6.63;;;3.63;;
3369;SDS011;42042;51.948;7.628;2022-09-06T01:20:09;4.90;;;4.10;;
3369;SDS011;42042;51.948;7.628;2022-09-06T01:25:33;4.10;;;3.80;;
3369;SDS011;42042;51.948;7.628;2022-09-06T01:28:08;7.20;;;4.77;;
3369;SDS011;42042;51.948;7.628;2022-09-06T01:30:42;4.47;;;3.80;;
3369;SDS011;42042;51.948;7.628;2022-09-06T01:33:15;4.60;;;4.07;;
3369;SDS011;42042;51.948;7.628;2022-09-06T01:35:47;4.03;;;3.63;;
3369;SDS011;42042;51.948;7.628;2022-09-06T01:38:15;4.33;;;3.87;;
3369;SDS011;42042;51.948;7.628;2022-09-06T01:40:42;4.93;;;4.07;;
3369;SDS011;42042;51.948;7.628;2022-09-06T01:43:11;4.03;;;3.60;;
3369;SDS011;42042;51.948;7.628;2022-09-06T01:45:41;7.73;;;3.93;;
3369;SDS011;42042;51.948;7.628;2022-09-06T01:48:10;11.67;;;5.10;;
3369;SDS011;42042;51.948;7.628;2022-09-06T01:50:52;6.40;;;5.80;;
3369;SDS011;42042;51.948;7.628;2022-09-06T01:53:31;4.40;;;4.03;;
3369;SDS011;42042;51.948;7.628;2022-09-06T01:56:03;4.47;;;4.00;;
3369;SDS011;42042;51.948;7.628;2022-09-06T01:58:40;5.90;;;4.20;;
3369;SDS011;42042;51.948;7.628;2022-09-06T02:01:11;5.87;;;3.87;;
3369;SDS011;42042;51.948;7.628;2022-09-06T02:03:40;4.30;;;3.90;;
3369;SDS011;42042;51.948;7.628;2022-09-06T02:06:10;4.23;;;3.83;;
3369;SDS011;42042;51.948;7.628;2022-09-06T02:08:40;4.53;;;4.13;;
3369;SDS011;42042;51.948;7.628;2022-09-06T02:11:09;6.23;;;3.90;;
3369;SDS011;42042;51.948;7.628;2022-09-06T02:13:40;4.20;;;3.80;;
3369;SDS011;42042;51.948;7.628;2022-09-06T02:16:10;9.13;;;4.30;;
3369;SDS011;42042;51.948;7.628;2022-09-06T02:18:39;4.60;;;4.20;;
3369;SDS011;42042;51.948;7.628;2022-09-06T02:21:09;8.90;;;4.20;;
3369;SDS011;42042;51.948;7.628;2022-09-06T02:23:38;3.80;;;3.50;;
3369;SDS011;42042;51.948;7.628;2022-09-06T02:26:07;6.27;;;4.00;;
3369;SDS011;42042;51.948;7.628;2022-09-06T02:28:35;5.03;;;4.40;;
3369;SDS011;42042;51.948;7.628;2022-09-06T02:31:04;4.23;;;3.93;;
3369;SDS011;42042;51.948;7.628;2022-09-06T02:33:34;4.70;;;4.30;;
3369;SDS011;42042;51.948;7.628;2022-09-06T02:36:03;5.17;;;4.23;;
3369;SDS011;42042;51.948;7.628;2022-09-06T02:38:31;6.33;;;4.60;;
3369;SDS011;42042;51.948;7.628;2022-09-06T02:41:00;5.20;;;4.70;;
3369;SDS011;42042;51.948;7.628;2022-09-06T02:43:27;4.73;;;4.20;;
3369;SDS011;42042;51.948;7.628;2022-09-06T02:45:55;7.27;;;4.60;;
3369;SDS011;42042;51.948;7.628;2022-09-06T02:48:23;7.80;;;4.90;;
3369;SDS011;42042;51.948;7.628;2022-09-06T02:50:50;4.93;;;4.53;;
3369;SDS011;42042;51.948;7.628;2022-09-06T02:53:18;9.40;;;4.57;;
3369;SDS011;42042;51.948;7.628;2022-09-06T02:55:45;4.63;;;4.13;;
3369;SDS011;42042;51.948;7.628;2022-09-06T02:58:13;4.33;;;4.03;;
3369;SDS011;42042;51.948;7.628;2022-09-06T03:00:40;4.43;;;4.00;;
3369;SDS011;42042;51.948;7.628;2022-09-06T03:03:09;6.63;;;4.00;;
3369;SDS011;42042;51.948;7.628;2022-09-06T03:05:37;5.80;;;3.53;;
3369;SDS011;42042;51.948;7.628;2022-09-06T03:08:04;4.10;;;3.70;;
3369;SDS011;42042;51.948;7.628;2022-09-06T03:10:32;4.47;;;4.07;;
3369;SDS011;42042;51.948;7.628;2022-09-06T03:12:59;4.27;;;3.90;;
3369;SDS011;42042;51.948;7.628;2022-09-06T03:15:26;9.13;;;4.80;;
3369;SDS011;42042;51.948;7.628;2022-09-06T03:17:56;5.00;;;3.90;;
3369;SDS011;42042;51.948;7.628;2022-09-06T03:20:23;6.00;;;3.80;;
3369;SDS011;42042;51.948;7.628;2022-09-06T03:22:52;4.33;;;4.03;;
3369;SDS011;42042;51.948;7.628;2022-09-06T03:25:20;3.73;;;3.43;;
3369;SDS011;42042;51.948;7.628;2022-09-06T03:27:47;4.20;;;3.90;;
3369;SDS011;42042;51.948;7.628;2022-09-06T03:30:14;5.53;;;4.17;;
3369;SDS011;42042;51.948;7.628;2022-09-06T03:32:42;4.20;;;3.43;;
3369;SDS011;42042;51.948;7.628;2022-09-06T03:35:09;4.10;;;3.60;;
3369;SDS011;42042;51.948;7.628;2022-09-06T03:37:36;3.80;;;3.50;;
3369;SDS011;42042;51.948;7.628;2022-09-06T03:40:06;6.57;;;3.70;;
3369;SDS011;42042;51.948;7.628;2022-09-06T03:42:33;4.50;;;3.90;;
3369;SDS011;42042;51.948;7.628;2022-09-06T03:45:00;3.50;;;3.30;;
3369;SDS011;42042;51.948;7.628;2022-09-06T03:47:27;4.47;;;3.57;;
3369;SDS011;42042;51.948;7.628;2022-09-06T03:49:55;6.60;;;3.70;;
3369;SDS011;42042;51.948;7.628;2022-09-06T03:52:22;7.43;;;4.13;;
3369;SDS011;42042;51.948;7.628;2022-09-06T03:54:49;4.67;;;3.73;;
3369;SDS011;42042;51.948;7.628;2022-09-06T03:57:18;5.03;;;4.20;;
3369;SDS011;42042;51.948;7.628;2022-09-06T03:59:45;3.60;;;3.30;;
3369;SDS011;42042;51.948;7.628;2022-09-06T04:02:12;4.80;;;3.97;;
3369;SDS011;42042;51.948;7.628;2022-09-06T04:04:39;5.20;;;4.30;;
3369;SDS011;42042;51.948;7.628;2022-09-06T04:07:06;7.70;;;4.63;;
3369;SDS011;42042;51.948;7.628;2022-09-06T04:09:34;7.20;;;5.40;;
3369;SDS011;42042;51.948;7.628;2022-09-06T04:12:01;4.60;;;4.20;;
3369;SDS011;42042;51.948;7.628;2022-09-06T04:14:30;4.30;;;4.00;;
3369;SDS011;42042;51.948;7.628;2022-09-06T04:16:57;7.43;;;4.60;;
3369;SDS011;42042;51.948;7.628;2022-09-06T04:19:25;4.10;;;3.70;;
3369;SDS011;42042;51.948;7.628;2022-09-06T04:21:52;5.67;;;4.57;;
3369;SDS011;42042;51.948;7.628;2022-09-06T04:24:19;4.37;;;4.00;;
3369;SDS011;42042;51.948;7.628;2022-09-06T04:26:46;6.87;;;4.60;;
3369;SDS011;42042;51.948;7.628;2022-09-06T04:29:13;5.00;;;3.73;;
3369;SDS011;42042;51.948;7.628;2022-09-06T04:31:42;6.10;;;4.27;;
3369;SDS011;42042;51.948;7.628;2022-09-06T04:34:09;8.37;;;4.27;;
3369;SDS011;42042;51.948;7.628;2022-09-06T04:36:37;5.30;;;4.27;;
3369;SDS011;42042;51.948;7.628;2022-09-06T04:39:04;6.77;;;4.93;;
3369;SDS011;42042;51.948;7.628;2022-09-06T04:41:31;8.37;;;5.00;;
3369;SDS011;42042;51.948;7.628;2022-09-06T04:43:58;7.03;;;5.33;;
3369;SDS011;42042;51.948;7.628;2022-09-06T04:46:26;12.90;;;4.27;;
3369;SDS011;42042;51.948;7.628;2022-09-06T04:48:55;8.33;;;4.20;;
3369;SDS011;42042;51.948;7.628;2022-09-06T04:51:23;11.60;;;5.00;;
3369;SDS011;42042;51.948;7.628;2022-09-06T04:53:51;7.57;;;4.93;;
3369;SDS011;42042;51.948;7.628;2022-09-06T04:56:19;6.77;;;4.83;;
3369;SDS011;42042;51.948;7.628;2022-09-06T04:58:47;5.43;;;4.73;;
3369;SDS011;42042;51.948;7.628;2022-09-06T05:01:15;9.03;;;5.23;;
3369;SDS011;42042;51.948;7.628;2022-09-06T05:03:42;6.63;;;5.50;;
3369;SDS011;42042;51.948;7.628;2022-09-06T05:06:12;5.40;;;4.53;;
3369;SDS011;42042;51.948;7.628;2022-09-06T05:08:40;7.10;;;5.33;;
3369;SDS011;42042;51.948;7.628;2022-09-06T05:11:07;10.63;;;6.00;;
3369;SDS011;42042;51.948;7.628;2022-09-06T05:13:35;9.80;;;5.20;;
3369;SDS011;42042;51.948;7.628;2022-09-06T05:16:03;7.67;;;5.27;;
3369;SDS011;42042;51.948;7.628;2022-09-06T05:18:31;8.87;;;5.77;;
3369;SDS011;42042;51.948;7.628;2022-09-06T05:20:59;8.57;;;5.90;;
3369;SDS011;42042;51.948;7.628;2022-09-06T05:23:27;12.13;;;5.20;;
3369;SDS011;42042;51.948;7.628;2022-09-06T05:25:55;6.03;;;5.43;;
3369;SDS011;42042;51.948;7.628;2022-09-06T05:28:22;6.37;;;5.77;;
3369;SDS011;42042;51.948;7.628;2022-09-06T05:30:49;5.97;;;5.37;;
3369;SDS011;42042;51.948;7.628;2022-09-06T05:33:18;17.00;;;6.20;;
3369;SDS011;42042;51.948;7.628;2022-09-06T05:35:46;10.20;;;6.87;;
3369;SDS011;42042;51.948;7.628;2022-09-06T05:38:13;7.87;;;5.93;;
3369;SDS011;42042;51.948;7.628;2022-09-06T05:40:42;11.07;;;5.60;;
3369;SDS011;42042;51.948;7.628;2022-09-06T05:43:09;10.00;;;6.77;;
3369;SDS011;42042;51.948;7.628;2022-09-06T05:45:36;10.27;;;6.70;;
3369;SDS011;42042;51.948;7.628;2022-09-06T05:48:03;10.10;;;7.33;;
3369;SDS011;42042;51.948;7.628;2022-09-06T05:50:32;7.83;;;7.10;;
3369;SDS011;42042;51.948;7.628;2022-09-06T05:52:59;8.67;;;6.63;;
3369;SDS011;42042;51.948;7.628;2022-09-06T05:55:27;9.73;;;6.30;;
3369;SDS011;42042;51.948;7.628;2022-09-06T05:57:56;11.00;;;7.47;;
3369;SDS011;42042;51.948;7.628;2022-09-06T06:00:23;11.87;;;7.63;;
3369;SDS011;42042;51.948;7.628;2022-09-06T06:02:50;13.23;;;7.10;;
3369;SDS011;42042;51.948;7.628;2022-09-06T06:05:17;14.33;;;7.50;;
3369;SDS011;42042;51.948;7.628;2022-09-06T06:07:44;14.13;;;6.67;;
3369;SDS011;42042;51.948;7.628;2022-09-06T06:10:12;8.10;;;7.17;;
3369;SDS011;42042;51.948;7.628;2022-09-06T06:12:39;14.00;;;7.47;;
3369;SDS011;42042;51.948;7.628;2022-09-06T06:15:08;8.57;;;7.20;;
3369;SDS011;42042;51.948;7.628;2022-09-06T06:17:36;9.97;;;7.13;;
3369;SDS011;42042;51.948;7.628;2022-09-06T06:20:03;9.80;;;7.47;;
3369;SDS011;42042;51.948;7.628;2022-09-06T06:22:31;20.53;;;7.93;;
3369;SDS011;42042;51.948;7.628;2022-09-06T06:24:58;9.93;;;7.60;;
3369;SDS011;42042;51.948;7.628;2022-09-06T06:27:25;9.03;;;7.90;;
3369;SDS011;42042;51.948;7.628;2022-09-06T06:29:52;12.30;;;8.23;;
3369;SDS011;42042;51.948;7.628;2022-09-06T06:32:21;10.23;;;8.17;;
3369;SDS011;42042;51.948;7.628;2022-09-06T06:34:48;15.30;;;8.07;;
3369;SDS011;42042;51.948;7.628;2022-09-06T06:37:15;10.47;;;7.47;;
3369;SDS011;42042;51.948;7.628;2022-09-06T06:39:43;9.23;;;8.10;;
3369;SDS011;42042;51.948;7.628;2022-09-06T06:42:10;13.63;;;7.70;;
3369;SDS011;42042;51.948;7.628;2022-09-06T06:44:40;11.40;;;6.73;;
3369;SDS011;42042;51.948;7.628;2022-09-06T06:47:07;16.70;;;8.10;;
3369;SDS011;42042;51.948;7.628;2022-09-06T06:49:36;16.40;;;7.90;;
3369;SDS011;42042;51.948;7.628;2022-09-06T06:52:03;14.80;;;7.77;;
3369;SDS011;42042;51.948;7.628;2022-09-06T06:54:31;11.47;;;7.70;;
3369;SDS011;42042;51.948;7.628;2022-09-06T06:56:58;11.10;;;8.50;;
3369;SDS011;42042;51.948;7.628;2022-09-06T06:59:25;15.23;;;8.03;;
3369;SDS011;42042;51.948;7.628;2022-09-06T07:01:52;9.33;;;7.87;;
3369;SDS011;42042;51.948;7.628;2022-09-06T07:04:20;8.90;;;8.10;;
3369;SDS011;42042;51.948;7.628;2022-09-06T07:06:49;11.10;;;7.87;;
3369;SDS011;42042;51.948;7.628;2022-09-06T07:09:17;11.30;;;10.17;;
3369;SDS011;42042;51.948;7.628;2022-09-06T07:11:44;14.97;;;8.83;;
3369;SDS011;42042;51.948;7.628;2022-09-06T07:14:12;13.03;;;8.60;;
3369;SDS011;42042;51.948;7.628;2022-09-06T07:16:40;15.90;;;9.63;;
3369;SDS011;42042;51.948;7.628;2022-09-06T07:19:08;10.27;;;8.93;;
3369;SDS011;42042;51.948;7.628;2022-09-06T07:21:35;13.90;;;9.37;;
3369;SDS011;42042;51.948;7.628;2022-09-06T07:24:05;11.57;;;9.27;;
3369;SDS011;42042;51.948;7.628;2022-09-06T07:26:32;14.17;;;9.57;;
3369;SDS011;42042;51.948;7.628;2022-09-06T07:29:00;14.83;;;9.40;;
3369;SDS011;42042;51.948;7.628;2022-09-06T07:31:28;11.87;;;10.70;;
3369;SDS011;42042;51.948;7.628;2022-09-06T07:33:56;17.67;;;9.70;;
3369;SDS011;42042;51.948;7.628;2022-09-06T07:36:23;19.27;;;10.17;;
3369;SDS011;42042;51.948;7.628;2022-09-06T07:38:50;15.10;;;10.67;;
3369;SDS011;42042;51.948;7.628;2022-09-06T07:41:19;15.67;;;12.10;;
3369;SDS011;42042;51.948;7.628;2022-09-06T07:43:47;12.60;;;11.30;;
3369;SDS011;42042;51.948;7.628;2022-09-06T07:46:15;18.73;;;10.20;;
3369;SDS011;42042;51.948;7.628;2022-09-06T07:48:43;16.43;;;11.13;;
3369;SDS011;42042;51.948;7.628;2022-09-06T07:51:11;17.40;;;11.80;;
3369;SDS011;42042;51.948;7.628;2022-09-06T07:53:40;13.57;;;12.27;;
3369;SDS011;42042;51.948;7.628;2022-09-06T07:56:08;19.37;;;12.87;;
3369;SDS011;42042;51.948;7.628;2022-09-06T07:58:37;16.73;;;12.00;;
3369;SDS011;42042;51.948;7.628;2022-09-06T08:03:56;21.43;;;13.90;;
3369;SDS011;42042;51.948;7.628;2022-09-06T08:06:24;17.93;;;14.57;;
3369;SDS011;42042;51.948;7.628;2022-09-06T08:08:51;19.83;;;14.20;;
3369;SDS011;42042;51.948;7.628;2022-09-06T08:11:18;22.70;;;12.83;;
3369;SDS011;42042;51.948;7.628;2022-09-06T08:13:48;17.20;;;12.07;;
3369;SDS011;42042;51.948;7.628;2022-09-06T08:16:16;17.43;;;11.10;;
3369;SDS011;42042;51.948;7.628;2022-09-06T08:18:44;12.30;;;10.83;;
3369;SDS011;42042;51.948;7.628;2022-09-06T08:21:12;12.47;;;11.07;;
3369;SDS011;42042;51.948;7.628;2022-09-06T08:23:43;13.10;;;11.37;;
3369;SDS011;42042;51.948;7.628;2022-09-06T08:26:11;12.93;;;11.63;;
3369;SDS011;42042;51.948;7.628;2022-09-06T08:28:38;10.63;;;8.27;;
3369;SDS011;42042;51.948;7.628;2022-09-06T08:31:07;13.37;;;8.67;;
3369;SDS011;42042;51.948;7.628;2022-09-06T08:33:35;11.93;;;9.37;;
3369;SDS011;42042;51.948;7.628;2022-09-06T08:36:03;21.80;;;9.80;;
3369;SDS011;42042;51.948;7.628;2022-09-06T08:38:31;12.07;;;9.13;;
3369;SDS011;42042;51.948;7.628;2022-09-06T08:41:04;11.70;;;9.00;;
3369;SDS011;42042;51.948;7.628;2022-09-06T08:43:32;14.13;;;7.60;;
3369;SDS011;42042;51.948;7.628;2022-09-06T08:46:00;8.30;;;7.47;;
3369;SDS011;42042;51.948;7.628;2022-09-06T08:48:31;9.80;;;8.40;;
3369;SDS011;42042;51.948;7.628;2022-09-06T08:51:02;13.73;;;7.40;;
3369;SDS011;42042;51.948;7.628;2022-09-06T08:53:33;8.63;;;6.50;;
3369;SDS011;42042;51.948;7.628;2022-09-06T08:56:03;7.13;;;6.53;;
3369;SDS011;42042;51.948;7.628;2022-09-06T08:58:36;9.80;;;7.53;;
3369;SDS011;42042;51.948;7.628;2022-09-06T09:01:08;6.80;;;6.10;;
3369;SDS011;42042;51.948;7.628;2022-09-06T09:03:38;7.10;;;6.43;;
3369;SDS011;42042;51.948;7.628;2022-09-06T09:06:07;7.00;;;5.63;;
3369;SDS011;42042;51.948;7.628;2022-09-06T09:08:36;9.97;;;6.43;;
3369;SDS011;42042;51.948;7.628;2022-09-06T09:11:05;6.63;;;6.03;;
3369;SDS011;42042;51.948;7.628;2022-09-06T09:13:35;10.80;;;5.67;;
3369;SDS011;42042;51.948;7.628;2022-09-06T09:16:04;12.60;;;6.90;;
3369;SDS011;42042;51.948;7.628;2022-09-06T09:18:32;8.77;;;6.50;;
3369;SDS011;42042;51.948;7.628;2022-09-06T09:21:01;14.57;;;8.47;;
3369;SDS011;42042;51.948;7.628;2022-09-06T09:23:28;9.37;;;8.47;;
3369;SDS011;42042;51.948;7.628;2022-09-06T09:25:58;8.67;;;7.63;;
3369;SDS011;42042;51.948;7.628;2022-09-06T09:28:26;8.93;;;8.13;;
3369;SDS011;42042;51.948;7.628;2022-09-06T09:30:53;9.83;;;7.67;;
3369;SDS011;42042;51.948;7.628;2022-09-06T09:33:28;8.10;;;6.80;;
3369;SDS011;42042;51.948;7.628;2022-09-06T09:35:57;8.67;;;7.93;;
3369;SDS011;42042;51.948;7.628;2022-09-06T09:38:26;8.30;;;6.67;;
3369;SDS011;42042;51.948;7.628;2022-09-06T09:40:55;10.80;;;8.17;;
3369;SDS011;42042;51.948;7.628;2022-09-06T09:43:23;9.23;;;6.03;;
3369;SDS011;42042;51.948;7.628;2022-09-06T09:46:14;6.80;;;5.77;;
3369;SDS011;42042;51.948;7.628;2022-09-06T09:48:43;6.87;;;6.03;;
3369;SDS011;42042;51.948;7.628;2022-09-06T09:51:17;6.10;;;5.57;;
3369;SDS011;42042;51.948;7.628;2022-09-06T09:53:50;5.50;;;5.10;;
3369;SDS011;42042;51.948;7.628;2022-09-06T09:56:18;7.13;;;5.90;;
3369;SDS011;42042;51.948;7.628;2022-09-06T09:58:48;7.30;;;6.60;;
3369;SDS011;42042;51.948;7.628;2022-09-06T10:01:16;6.00;;;5.50;;
3369;SDS011;42042;51.948;7.628;2022-09-06T10:03:44;8.60;;;5.80;;
3369;SDS011;42042;51.948;7.628;2022-09-06T10:06:12;9.83;;;6.90;;
3369;SDS011;42042;51.948;7.628;2022-09-06T10:08:40;7.33;;;6.30;;
3369;SDS011;42042;51.948;7.628;2022-09-06T10:11:12;7.00;;;6.30;;
3369;SDS011;42042;51.948;7.628;2022-09-06T10:13:40;9.70;;;6.87;;
3369;SDS011;42042;51.948;7.628;2022-09-06T10:16:08;7.70;;;6.77;;
3369;SDS011;42042;51.948;7.628;2022-09-06T10:18:36;7.50;;;6.27;;
3369;SDS011;42042;51.948;7.628;2022-09-06T10:21:04;7.00;;;5.90;;
3369;SDS011;42042;51.948;7.628;2022-09-06T10:23:41;9.17;;;5.30;;
3369;SDS011;42042;51.948;7.628;2022-09-06T10:26:11;8.23;;;6.07;;
3369;SDS011;42042;51.948;7.628;2022-09-06T10:28:43;8.63;;;4.93;;
3369;SDS011;42042;51.948;7.628;2022-09-06T10:31:24;6.70;;;4.80;;
3369;SDS011;42042;51.948;7.628;2022-09-06T10:33:59;5.30;;;4.87;;
3369;SDS011;42042;51.948;7.628;2022-09-06T10:36:28;6.80;;;6.10;;
3369;SDS011;42042;51.948;7.628;2022-09-06T10:38:59;9.27;;;8.30;;
3369;SDS011;42042;51.948;7.628;2022-09-06T10:41:33;7.23;;;5.63;;
3369;SDS011;42042;51.948;7.628;2022-09-06T10:44:09;5.40;;;4.50;;
3369;SDS011;42042;51.948;7.628;2022-09-06T10:46:39;12.00;;;5.30;;
3369;SDS011;42042;51.948;7.628;2022-09-06T10:49:10;7.57;;;4.30;;
3369;SDS011;42042;51.948;7.628;2022-09-06T10:51:40;5.83;;;4.80;;
3369;SDS011;42042;51.948;7.628;2022-09-06T10:54:10;5.67;;;4.80;;
3369;SDS011;42042;51.948;7.628;2022-09-06T10:56:39;6.00;;;4.37;;
3369;SDS011;42042;51.948;7.628;2022-09-06T10:59:11;5.50;;;4.00;;
3369;SDS011;42042;51.948;7.628;2022-09-06T11:01:40;5.20;;;4.70;;
3369;SDS011;42042;51.948;7.628;2022-09-06T11:04:08;6.83;;;4.83;;
3369;SDS011;42042;51.948;7.628;2022-09-06T11:06:39;8.80;;;7.00;;
3369;SDS011;42042;51.948;7.628;2022-09-06T11:09:10;5.80;;;5.10;;
3369;SDS011;42042;51.948;7.628;2022-09-06T11:11:43;5.40;;;4.33;;
3369;SDS011;42042;51.948;7.628;2022-09-06T11:14:13;5.63;;;4.37;;
3369;SDS011;42042;51.948;7.628;2022-09-06T11:16:42;7.77;;;4.50;;
3369;SDS011;42042;51.948;7.628;2022-09-06T11:19:14;6.50;;;4.33;;
3369;SDS011;42042;51.948;7.628;2022-09-06T11:24:30;9.50;;;3.67;;
3369;SDS011;42042;51.948;7.628;2022-09-06T11:27:03;4.63;;;3.60;;
3369;SDS011;42042;51.948;7.628;2022-09-06T11:29:33;8.50;;;3.63;;
3369;SDS011;42042;51.948;7.628;2022-09-06T11:32:01;6.33;;;4.10;;
3369;SDS011;42042;51.948;7.628;2022-09-06T11:34:29;9.93;;;3.90;;
3369;SDS011;42042;51.948;7.628;2022-09-06T11:36:58;7.97;;;3.60;;
3369;SDS011;42042;51.948;7.628;2022-09-06T11:39:27;3.40;;;3.20;;
3369;SDS011;42042;51.948;7.628;2022-09-06T11:41:55;4.10;;;3.70;;
3369;SDS011;42042;51.948;7.628;2022-09-06T11:47:38;6.70;;;3.33;;
3369;SDS011;42042;51.948;7.628;2022-09-06T11:50:25;4.73;;;2.90;;
3369;SDS011;42042;51.948;7.628;2022-09-06T11:53:13;4.87;;;3.50;;
3369;SDS011;42042;51.948;7.628;2022-09-06T11:55:42;10.23;;;3.50;;
3369;SDS011;42042;51.948;7.628;2022-09-06T11:58:18;4.20;;;3.20;;
3369;SDS011;42042;51.948;7.628;2022-09-06T12:01:31;5.67;;;3.60;;
3369;SDS011;42042;51.948;7.628;2022-09-06T12:06:21;4.47;;;4.03;;
3369;SDS011;42042;51.948;7.628;2022-09-06T12:08:49;8.90;;;3.60;;
3369;SDS011;42042;51.948;7.628;2022-09-06T12:11:27;5.50;;;3.10;;
3369;SDS011;42042;51.948;7.628;2022-09-06T12:13:59;3.73;;;3.27;;
3369;SDS011;42042;51.948;7.628;2022-09-06T12:19:13;4.80;;;2.83;;
3369;SDS011;42042;51.948;7.628;2022-09-06T12:21:58;4.07;;;2.80;;
3369;SDS011;42042;51.948;7.628;2022-09-06T12:27:12;4.43;;;4.03;;
3369;SDS011;42042;51.948;7.628;2022-09-06T12:29:46;4.37;;;3.20;;
3369;SDS011;42042;51.948;7.628;2022-09-06T12:32:15;3.10;;;2.80;;
3369;SDS011;42042;51.948;7.628;2022-09-06T12:34:45;2.90;;;2.70;;
3369;SDS011;42042;51.948;7.628;2022-09-06T12:37:14;6.33;;;2.80;;
3369;SDS011;42042;51.948;7.628;2022-09-06T12:39:54;4.30;;;2.73;;
3369;SDS011;42042;51.948;7.628;2022-09-06T12:42:22;2.40;;;2.20;;
3369;SDS011;42042;51.948;7.628;2022-09-06T12:44:50;6.87;;;5.93;;
3369;SDS011;42042;51.948;7.628;2022-09-06T12:47:20;5.60;;;3.47;;
3369;SDS011;42042;51.948;7.628;2022-09-06T12:50:04;4.40;;;3.20;;
3369;SDS011;42042;51.948;7.628;2022-09-06T12:52:32;6.03;;;3.20;;
3369;SDS011;42042;51.948;7.628;2022-09-06T12:55:00;3.30;;;2.40;;
3369;SDS011;42042;51.948;7.628;2022-09-06T12:57:27;2.90;;;2.17;;
3369;SDS011;42042;51.948;7.628;2022-09-06T12:59:55;2.43;;;2.23;;
3369;SDS011;42042;51.948;7.628;2022-09-06T13:02:24;4.80;;;2.43;;
3369;SDS011;42042;51.948;7.628;2022-09-06T13:04:52;5.33;;;2.20;;
3369;SDS011;42042;51.948;7.628;2022-09-06T13:07:21;2.67;;;1.90;;
3369;SDS011;42042;51.948;7.628;2022-09-06T13:09:53;3.37;;;2.30;;
3369;SDS011;42042;51.948;7.628;2022-09-06T13:12:23;2.60;;;2.40;;
3369;SDS011;42042;51.948;7.628;2022-09-06T13:14:51;3.10;;;2.03;;
3369;SDS011;42042;51.948;7.628;2022-09-06T13:17:22;3.50;;;2.07;;
3369;SDS011;42042;51.948;7.628;2022-09-06T13:19:50;3.83;;;2.40;;
3369;SDS011;42042;51.948;7.628;2022-09-06T13:25:00;6.40;;;2.20;;
3369;SDS011;42042;51.948;7.628;2022-09-06T13:27:32;2.73;;;2.23;;
3369;SDS011;42042;51.948;7.628;2022-09-06T13:30:00;2.63;;;2.43;;
3369;SDS011;42042;51.948;7.628;2022-09-06T13:32:27;3.80;;;2.50;;
3369;SDS011;42042;51.948;7.628;2022-09-06T13:34:56;2.27;;;2.03;;
3369;SDS011;42042;51.948;7.628;2022-09-06T13:37:24;5.00;;;2.60;;
3369;SDS011;42042;51.948;7.628;2022-09-06T13:39:52;4.43;;;2.33;;
3369;SDS011;42042;51.948;7.628;2022-09-06T13:42:24;4.20;;;2.30;;
3369;SDS011;42042;51.948;7.628;2022-09-06T13:44:52;5.27;;;3.00;;
3369;SDS011;42042;51.948;7.628;2022-09-06T13:47:19;3.57;;;2.90;;
3369;SDS011;42042;51.948;7.628;2022-09-06T13:49:46;2.37;;;2.27;;
3369;SDS011;42042;51.948;7.628;2022-09-06T13:52:13;2.60;;;2.40;;
3369;SDS011;42042;51.948;7.628;2022-09-06T13:54:42;5.73;;;2.50;;
3369;SDS011;42042;51.948;7.628;2022-09-06T13:57:09;5.27;;;2.43;;
3369;SDS011;42042;51.948;7.628;2022-09-06T13:59:38;2.80;;;2.60;;
3369;SDS011;42042;51.948;7.628;2022-09-06T14:02:07;2.70;;;2.50;;
3369;SDS011;42042;51.948;7.628;2022-09-06T14:04:35;4.00;;;2.43;;
3369;SDS011;42042;51.948;7.628;2022-09-06T14:07:03;3.10;;;2.07;;
3369;SDS011;42042;51.948;7.628;2022-09-06T14:09:30;3.43;;;2.40;;
3369;SDS011;42042;51.948;7.628;2022-09-06T14:11:57;7.17;;;2.80;;
3369;SDS011;42042;51.948;7.628;2022-09-06T14:14:25;2.43;;;2.23;;
3369;SDS011;42042;51.948;7.628;2022-09-06T14:16:53;4.00;;;2.07;;
3369;SDS011;42042;51.948;7.628;2022-09-06T14:19:21;3.30;;;2.30;;
3369;SDS011;42042;51.948;7.628;2022-09-06T14:21:48;4.93;;;2.73;;
3369;SDS011;42042;51.948;7.628;2022-09-06T14:24:16;5.47;;;2.90;;
3369;SDS011;42042;51.948;7.628;2022-09-06T14:26:44;5.10;;;2.77;;
3369;SDS011;42042;51.948;7.628;2022-09-06T14:29:11;3.37;;;2.80;;
3369;SDS011;42042;51.948;7.628;2022-09-06T14:31:38;2.83;;;2.30;;
3369;SDS011;42042;51.948;7.628;2022-09-06T14:34:07;4.40;;;2.30;;
3369;SDS011;42042;51.948;7.628;2022-09-06T14:36:34;3.80;;;2.60;;
3369;SDS011;42042;51.948;7.628;2022-09-06T14:39:02;5.60;;;3.00;;
3369;SDS011;42042;51.948;7.628;2022-09-06T14:41:29;2.87;;;2.57;;
3369;SDS011;42042;51.948;7.628;2022-09-06T14:43:57;5.00;;;2.40;;
3369;SDS011;42042;51.948;7.628;2022-09-06T14:46:25;3.67;;;2.30;;
3369;SDS011;42042;51.948;7.628;2022-09-06T14:48:56;4.80;;;2.20;;
3369;SDS011;42042;51.948;7.628;2022-09-06T14:51:25;3.00;;;2.53;;
3369;SDS011;42042;51.948;7.628;2022-09-06T14:53:53;4.00;;;2.43;;
3369;SDS011;42042;51.948;7.628;2022-09-06T14:56:20;2.43;;;2.33;;
3369;SDS011;42042;51.948;7.628;2022-09-06T14:58:48;2.27;;;2.10;;
3369;SDS011;42042;51.948;7.628;2022-09-06T15:01:16;5.10;;;2.73;;
3369;SDS011;42042;51.948;7.628;2022-09-06T15:03:44;2.90;;;2.60;;
3369;SDS011;42042;51.948;7.628;2022-09-06T15:06:13;5.90;;;2.57;;
3369;SDS011;42042;51.948;7.628;2022-09-06T15:08:42;3.07;;;2.77;;
3369;SDS011;42042;51.948;7.628;2022-09-06T15:11:09;6.30;;;2.93;;
3369;SDS011;42042;51.948;7.628;2022-09-06T15:13:37;2.67;;;2.30;;
3369;SDS011;42042;51.948;7.628;2022-09-06T15:16:06;10.27;;;3.33;;
3369;SDS011;42042;51.948;7.628;2022-09-06T15:18:33;6.80;;;2.70;;
3369;SDS011;42042;51.948;7.628;2022-09-06T15:21:07;5.57;;;2.57;;
3369;SDS011;42042;51.948;7.628;2022-09-06T15:23:34;7.53;;;2.50;;
3369;SDS011;42042;51.948;7.628;2022-09-06T15:26:03;6.00;;;2.77;;
3369;SDS011;42042;51.948;7.628;2022-09-06T15:28:32;4.60;;;2.50;;
3369;SDS011;42042;51.948;7.628;2022-09-06T15:30:59;3.43;;;2.43;;